Main page
METAR-TAF:

METAR-TAF

Airports :

Nouakchott–Oumtounsy International Airport

Nouakchott, Mauritania

latitude: 18-18-36N, longitude: 015-58-11W, elevation: 3 m

Current weather observation

The report was made 52 minutes ago, at 08:00 UTC
Wind 4 kt from the Northwest
Temperature 18°C
Humidity 94%
Pressure 1010 hPa
Visibility: 4500 m
mist

METAR: GQNO 210800Z 32004KT 4500 BR NSC 18/17 Q1010 NOSIG

Time: 08:52 (08:52 UTC)

Forecast

The report was made 3 hours and 52 minutes ago, at 05:00 UTC
Forecast valid from 21 at 06 UTC to 22 at 12 UTC
Wind 12 kt from the North/Northwest
Visibility: 7000 m
Probability 30% :
Temporary
from 22 at 04 UTC to 22 at 08 UTC
Visibility: 4000 m
Broken clouds at a height of 1000 ft
mist

TAF: GQNO 210500Z 2106/2212 33012KT 7000 NSC PROB30 TEMPO 2204/2208 4000 BR BKN010

Weather observations and forecasts of more than 4000 airports (METAR and TAF reports).

The available stations are represented by yellow and red dots on the map.

Hover mouse over dot to see the name of the station.

Then click to see weather observations and forecasts.

To change the map : click on the green buttons with a black cross to zoom in, on the green button with a dash to zoom out, or on the green arrows for adjacent maps.


METAR-TAF: